Tuesday, March 20, 2018, 5:37 PM GMT
Back to Local

CYYY, Mont Joli, Que.

Location: , , Canada Lat: 48.6
Local Time: 5:37 PM GMT (17:37 GMT) Lon: -68.217
Time Zone: GMT Elev: 157 ft

Show me the last for .
Show Decoded

2018-03-20 17:00 METAR CYYY 201700Z 26011G17KT 30SM FEW018 BKN230 M04/M11 A2984 RMK SC1CI4 SLP111
2018-03-20 16:00 METAR CYYY 201600Z 26012G18KT 30SM FEW020 BKN200 M05/M11 A2984 RMK SC2CI3 SLP109
2018-03-20 15:00 METAR CYYY 201500Z 27015KT 15SM DRSN SCT018 BKN160 M06/M11 A2984 RMK SC3AC2
                 SLP109 =
2018-03-20 14:03 METAR CYYY 201403Z 27016G22KT 15SM DRSN BKN018 M07/M11 A2982 RMK SC5 SLP104 =
2018-03-20 14:00 METAR CYYY 201400Z 28015G22KT 15SM -SN DRSN BKN018 BKN035 M07/M11 A2983 RMK
                 SC5SC1 SLP105 =
2018-03-20 13:00 METAR CYYY 201300Z 29017G23KT 10SM -SN DRSN BKN022 BKN040 M08/M11 A2981 RMK
                 SC5SC2 SLP101 =
2018-03-20 12:52 METAR CYYY 201252Z 29015KT 5SM -SN DRSN BKN022 BKN040 M08/M11 A2981 RMK SC6SC1
                 SLP100 =
2018-03-20 12:46 METAR CYYY 201246Z 29015KT 3SM -SN DRSN BKN018 BKN035 M08/M11 A2981 RMK SC5SC2
                 SLP100 =
2018-03-20 12:08 METAR CYYY 201208Z 30016G22KT 2SM -SN DRSN BKN014 OVC038 M08/M11 A2980 RMK
                 SC5SC3 SLP097 =
2018-03-20 12:00 METAR CYYY 201200Z 30018KT 3SM -SN DRSN BKN018 OVC040 M08/M11 A2980 RMK SC5SC3
                 SLP097 =
2018-03-20 11:42 METAR CYYY 201142Z 31018KT 3SM -SN DRSN BKN018 OVC038 M08/M12 A2979 RMK SC5SC3
                 SLP094 =
2018-03-20 11:00 METAR CYYY 201100Z 32018G24KT 15SM -SN DRSN OVC033 M08/M12 A2978 RMK SC8 SLP091
2018-03-20 10:00 METAR CYYY 201000Z 31018G24KT 30SM -SN DRSN BKN045 BKN200 M07/M13 A2975 RMK
                 SC6CI1 SLP081 =
2018-03-20 09:00 METAR CYYY 200900Z 30019G24KT 30SM -SN DRSN OVC038 M07/M13 A2975 RMK SC8 SLP078
2018-03-20 08:13 METAR CYYY 200813Z 31019KT 30SM -SN DRSN OVC038 M07/M13 A2973 RMK SC8 SLP074 =
2018-03-20 08:00 METAR CYYY 200800Z 31020KT 30SM DRSN OVC034 M07/M13 A2973 RMK SC8 SLP073 =
2018-03-20 07:00 METAR CYYY 200700Z 31020G27KT 30SM DRSN OVC038 M07/M12 A2972 RMK SC8 SLP069 =
2018-03-20 06:28 METAR CYYY 200628Z 31019G25KT 30SM DRSN BKN036 M07/M12 A2972 RMK SC7 SLP068 =
2018-03-20 06:00 METAR CYYY 200600Z 31021G28KT 30SM -SN DRSN BKN036 M06/M12 A2971 RMK SC7 SLP066
2018-03-20 05:00 METAR CYYY 200500Z 30021G28KT 3SM -SN DRSN SCT011 BKN023 M06/M08 A2971 RMK
                 SF4SC3 /S02/ SLP066 =
2018-03-20 04:00 METAR CYYY 200400Z 31019KT 3SM R06/5500VP6000FT/D -SN DRSN FEW012 BKN039 M06/M08
                 A2970 RMK SF2SC3 SLP064 =
2018-03-20 03:00 METAR CYYY 200300Z 30020KT 3SM -SN DRSN OVC024 M06/M08 A2970 RMK SC8 SLP062 =
2018-03-20 02:00 METAR CYYY 200200Z 31019G30KT 3SM R06/4500VP6000FT/U -SN DRSN OVC015 M05/M08
                 A2969 RMK SC8 /S01/ SLP059 =
2018-03-20 01:00 METAR CYYY 200100Z 30017KT 5SM -SG DRSN OVC025 M04/M07 A2967 RMK SC8 SLP054 =
2018-03-20 00:00 METAR CYYY 200000Z 30018G24KT 5SM -SN DRSN OVC035 M04/M07 A2966 RMK SC8 SLP050 =
2018-03-19 23:00 METAR CYYY 192300Z 30021G27KT 3SM -SN OVC027 M04/M07 A2964 RMK SC8 SLP043 =
2018-03-19 22:51 METAR CYYY 192251Z 31019G26KT 3SM -SN OVC028 M04/M07 A2964 RMK SC8 SLP042 =
2018-03-19 22:00 METAR CYYY 192200Z 27017G22KT 15SM OVC060 M04/M07 A2962 RMK SC8 SLP035 =
2018-03-19 21:00 METAR CYYY 192100Z 27018G24KT 15SM OVC047 M04/M08 A2961 RMK SC8 SLP032 =
2018-03-19 20:13 METAR CYYY 192013Z 28016G25KT 15SM BKN047 M04/M08 A2961 RMK SC7 SLP033 =
2018-03-19 20:00 METAR CYYY 192000Z 27017KT 15SM -SN BKN048 M04/M08 A2961 RMK SC7 SLP033 =
2018-03-19 19:00 METAR CYYY 191900Z 29018G24KT 15SM -SN OVC030 M05/M09 A2961 RMK SC8 SLP032 =
2018-03-19 18:00 METAR CYYY 191800Z 26014G20KT 15SM -SN DRSN OVC028 M05/M10 A2961 RMK SC8 /S01/
                 SLP031 =

Support USWX by starting your Amazon purchase here.